sensor_id;sensor_type;location;lat;lon;timestamp;pressure;altitude;pressure_sealevel;temperature;humidity
27643;BME280;15053;48.618;10.024;2022-08-19T00:01:28;93860.69;;;19.47;83.20
27643;BME280;15053;48.618;10.024;2022-08-19T00:03:58;93870.41;;;19.43;83.57
27643;BME280;15053;48.618;10.024;2022-08-19T00:06:27;93863.84;;;19.37;83.95
27643;BME280;15053;48.618;10.024;2022-08-19T00:08:55;93863.38;;;19.31;84.53
27643;BME280;15053;48.618;10.024;2022-08-19T00:11:22;93865.97;;;19.28;84.90
27643;BME280;15053;48.618;10.024;2022-08-19T00:13:51;93848.47;;;19.20;85.47
27643;BME280;15053;48.618;10.024;2022-08-19T00:16:18;93859.84;;;19.24;85.92
27643;BME280;15053;48.618;10.024;2022-08-19T00:18:51;93864.38;;;19.23;86.19
27643;BME280;15053;48.618;10.024;2022-08-19T00:21:18;93868.84;;;19.19;86.40
27643;BME280;15053;48.618;10.024;2022-08-19T00:23:45;93865.34;;;19.15;86.67
27643;BME280;15053;48.618;10.024;2022-08-19T00:26:11;93856.25;;;19.13;87.34
27643;BME280;15053;48.618;10.024;2022-08-19T00:28:38;93843.41;;;19.11;87.42
27643;BME280;15053;48.618;10.024;2022-08-19T00:31:06;93840.69;;;19.08;88.08
27643;BME280;15053;48.618;10.024;2022-08-19T00:33:34;93835.72;;;19.03;88.37
27643;BME280;15053;48.618;10.024;2022-08-19T00:36:04;93842.88;;;19.02;88.58
27643;BME280;15053;48.618;10.024;2022-08-19T00:38:33;93844.31;;;19.00;88.89
27643;BME280;15053;48.618;10.024;2022-08-19T00:41:05;93843.47;;;18.96;89.17
27643;BME280;15053;48.618;10.024;2022-08-19T00:43:32;93840.84;;;18.96;89.25
27643;BME280;15053;48.618;10.024;2022-08-19T00:45:59;93851.41;;;18.96;89.51
27643;BME280;15053;48.618;10.024;2022-08-19T00:48:28;93852.88;;;18.93;89.94
27643;BME280;15053;48.618;10.024;2022-08-19T00:50:55;93858.50;;;18.92;89.83
27643;BME280;15053;48.618;10.024;2022-08-19T00:53:24;93862.94;;;18.88;90.10
27643;BME280;15053;48.618;10.024;2022-08-19T00:55:55;93864.06;;;18.87;90.06
27643;BME280;15053;48.618;10.024;2022-08-19T00:58:26;93864.41;;;18.85;90.56
27643;BME280;15053;48.618;10.024;2022-08-19T01:00:54;93861.75;;;18.85;90.53
27643;BME280;15053;48.618;10.024;2022-08-19T01:03:22;93858.72;;;18.83;91.00
27643;BME280;15053;48.618;10.024;2022-08-19T01:05:50;93862.81;;;18.80;91.14
27643;BME280;15053;48.618;10.024;2022-08-19T01:08:19;93861.28;;;18.79;90.98
27643;BME280;15053;48.618;10.024;2022-08-19T01:10:52;93853.34;;;18.79;91.40
27643;BME280;15053;48.618;10.024;2022-08-19T01:13:24;93856.44;;;18.81;91.45
27643;BME280;15053;48.618;10.024;2022-08-19T01:15:55;93860.16;;;18.80;91.37
27643;BME280;15053;48.618;10.024;2022-08-19T01:18:23;93861.28;;;18.79;91.54
27643;BME280;15053;48.618;10.024;2022-08-19T01:20:52;93866.13;;;18.77;91.68
27643;BME280;15053;48.618;10.024;2022-08-19T01:23:20;93868.38;;;18.75;91.47
27643;BME280;15053;48.618;10.024;2022-08-19T01:25:51;93869.06;;;18.72;92.04
27643;BME280;15053;48.618;10.024;2022-08-19T01:28:25;93863.38;;;18.70;92.10
27643;BME280;15053;48.618;10.024;2022-08-19T01:30:59;93866.75;;;18.71;92.33
27643;BME280;15053;48.618;10.024;2022-08-19T01:33:33;93862.25;;;18.71;92.35
27643;BME280;15053;48.618;10.024;2022-08-19T01:36:05;93861.41;;;18.67;92.65
27643;BME280;15053;48.618;10.024;2022-08-19T01:38:36;93855.28;;;18.63;92.73
27643;BME280;15053;48.618;10.024;2022-08-19T01:41:11;93855.97;;;18.60;92.80
27643;BME280;15053;48.618;10.024;2022-08-19T01:43:38;93859.75;;;18.59;93.23
27643;BME280;15053;48.618;10.024;2022-08-19T01:46:25;93857.44;;;18.58;93.17
27643;BME280;15053;48.618;10.024;2022-08-19T01:48:52;93857.38;;;18.54;93.67
27643;BME280;15053;48.618;10.024;2022-08-19T01:51:18;93854.31;;;18.52;93.67
27643;BME280;15053;48.618;10.024;2022-08-19T01:53:49;93860.00;;;18.54;93.78
27643;BME280;15053;48.618;10.024;2022-08-19T01:56:18;93859.25;;;18.54;93.58
27643;BME280;15053;48.618;10.024;2022-08-19T01:58:54;93855.00;;;18.49;94.08
27643;BME280;15053;48.618;10.024;2022-08-19T02:01:22;93859.59;;;18.52;94.13
27643;BME280;15053;48.618;10.024;2022-08-19T02:03:53;93861.03;;;18.50;93.87
27643;BME280;15053;48.618;10.024;2022-08-19T02:06:22;93866.97;;;18.47;94.29
27643;BME280;15053;48.618;10.024;2022-08-19T02:08:52;93863.16;;;18.44;94.21
27643;BME280;15053;48.618;10.024;2022-08-19T02:11:29;93859.25;;;18.38;94.39
27643;BME280;15053;48.618;10.024;2022-08-19T02:13:59;93871.25;;;18.36;94.20
27643;BME280;15053;48.618;10.024;2022-08-19T02:16:26;93871.63;;;18.34;94.27
27643;BME280;15053;48.618;10.024;2022-08-19T02:18:53;93874.94;;;18.31;94.77
27643;BME280;15053;48.618;10.024;2022-08-19T02:21:21;93872.63;;;18.29;95.15
27643;BME280;15053;48.618;10.024;2022-08-19T02:23:49;93871.88;;;18.29;95.28
27643;BME280;15053;48.618;10.024;2022-08-19T02:26:17;93870.34;;;18.28;95.15
27643;BME280;15053;48.618;10.024;2022-08-19T02:28:43;93871.88;;;18.29;95.44
27643;BME280;15053;48.618;10.024;2022-08-19T02:31:16;93867.34;;;18.29;95.50
27643;BME280;15053;48.618;10.024;2022-08-19T02:33:44;93857.53;;;18.26;95.49
27643;BME280;15053;48.618;10.024;2022-08-19T02:36:13;93851.03;;;18.24;96.00
27643;BME280;15053;48.618;10.024;2022-08-19T02:38:41;93858.22;;;18.23;95.80
27643;BME280;15053;48.618;10.024;2022-08-19T02:41:16;93844.59;;;18.21;95.83
27643;BME280;15053;48.618;10.024;2022-08-19T02:43:44;93846.91;;;18.23;95.97
27643;BME280;15053;48.618;10.024;2022-08-19T02:46:32;93852.16;;;18.23;95.99
27643;BME280;15053;48.618;10.024;2022-08-19T02:49:04;93845.34;;;18.22;96.25
27643;BME280;15053;48.618;10.024;2022-08-19T02:51:37;93844.59;;;18.21;96.54
27643;BME280;15053;48.618;10.024;2022-08-19T02:54:05;93838.56;;;18.21;96.04
27643;BME280;15053;48.618;10.024;2022-08-19T02:56:34;93855.22;;;18.25;96.20
27643;BME280;15053;48.618;10.024;2022-08-19T02:59:02;93857.16;;;18.28;96.08
27643;BME280;15053;48.618;10.024;2022-08-19T03:01:31;93857.59;;;18.30;96.03
27643;BME280;15053;48.618;10.024;2022-08-19T03:04:00;93861.34;;;18.29;95.83
27643;BME280;15053;48.618;10.024;2022-08-19T03:06:28;93862.03;;;18.26;95.84
27643;BME280;15053;48.618;10.024;2022-08-19T03:08:56;93855.31;;;18.28;95.86
27643;BME280;15053;48.618;10.024;2022-08-19T03:11:26;93846.25;;;18.29;95.86
27643;BME280;15053;48.618;10.024;2022-08-19T03:13:53;93834.63;;;18.31;95.66
27643;BME280;15053;48.618;10.024;2022-08-19T03:16:23;93834.22;;;18.28;95.66
27643;BME280;15053;48.618;10.024;2022-08-19T03:18:50;93833.84;;;18.30;95.62
27643;BME280;15053;48.618;10.024;2022-08-19T03:21:22;93838.34;;;18.29;95.41
27643;BME280;15053;48.618;10.024;2022-08-19T03:23:53;93840.16;;;18.25;95.15
27643;BME280;15053;48.618;10.024;2022-08-19T03:26:20;93843.91;;;18.24;95.31
27643;BME280;15053;48.618;10.024;2022-08-19T03:28:47;93843.91;;;18.24;95.10
27643;BME280;15053;48.618;10.024;2022-08-19T03:31:24;93852.16;;;18.23;94.88
27643;BME280;15053;48.618;10.024;2022-08-19T03:34:13;93854.38;;;18.21;94.89
27643;BME280;15053;48.618;10.024;2022-08-19T03:36:40;93852.84;;;18.20;94.57
27643;BME280;15053;48.618;10.024;2022-08-19T03:39:07;93853.63;;;18.20;94.37
27643;BME280;15053;48.618;10.024;2022-08-19T03:41:40;93866.44;;;18.22;94.75
27643;BME280;15053;48.618;10.024;2022-08-19T03:44:18;93861.16;;;18.22;94.59
27643;BME280;15053;48.618;10.024;2022-08-19T03:46:49;93855.91;;;18.22;94.85
27643;BME280;15053;48.618;10.024;2022-08-19T03:49:17;93857.44;;;18.23;94.94
27643;BME280;15053;48.618;10.024;2022-08-19T03:51:47;93858.63;;;18.25;94.84
27643;BME280;15053;48.618;10.024;2022-08-19T03:54:17;93859.81;;;18.28;95.25
27643;BME280;15053;48.618;10.024;2022-08-19T03:56:47;93859.13;;;18.31;95.14
27643;BME280;15053;48.618;10.024;2022-08-19T03:59:20;93851.22;;;18.31;94.88
27643;BME280;15053;48.618;10.024;2022-08-19T04:01:47;93858.34;;;18.31;95.18
27643;BME280;15053;48.618;10.024;2022-08-19T04:04:14;93852.31;;;18.30;94.82
27643;BME280;15053;48.618;10.024;2022-08-19T04:06:40;93860.22;;;18.30;95.08
27643;BME280;15053;48.618;10.024;2022-08-19T04:09:10;93853.00;;;18.27;95.01
27643;BME280;15053;48.618;10.024;2022-08-19T04:11:40;93840.94;;;18.26;95.06
27643;BME280;15053;48.618;10.024;2022-08-19T04:14:18;93846.22;;;18.26;95.11
27643;BME280;15053;48.618;10.024;2022-08-19T04:16:46;93847.66;;;18.23;94.89
27643;BME280;15053;48.618;10.024;2022-08-19T04:19:14;93833.31;;;18.21;94.98
27643;BME280;15053;48.618;10.024;2022-08-19T04:21:43;93845.28;;;18.18;95.08
27643;BME280;15053;48.618;10.024;2022-08-19T04:24:11;93846.41;;;18.17;95.09
27643;BME280;15053;48.618;10.024;2022-08-19T04:26:38;93848.63;;;18.15;95.00
27643;BME280;15053;48.618;10.024;2022-08-19T04:29:08;93856.53;;;18.15;95.53
27643;BME280;15053;48.618;10.024;2022-08-19T04:31:39;93856.09;;;18.13;95.30
27643;BME280;15053;48.618;10.024;2022-08-19T04:34:07;93852.00;;;18.16;95.50
27643;BME280;15053;48.618;10.024;2022-08-19T04:36:36;93851.25;;;18.15;95.58
27643;BME280;15053;48.618;10.024;2022-08-19T04:39:14;93839.84;;;18.11;95.93
27643;BME280;15053;48.618;10.024;2022-08-19T04:41:42;93852.75;;;18.16;95.89
27643;BME280;15053;48.618;10.024;2022-08-19T04:44:27;93847.56;;;18.20;96.11
27643;BME280;15053;48.618;10.024;2022-08-19T04:46:59;93850.22;;;18.20;96.20
27643;BME280;15053;48.618;10.024;2022-08-19T04:49:27;93858.53;;;18.22;96.02
27643;BME280;15053;48.618;10.024;2022-08-19T04:51:54;93849.13;;;18.21;95.97
27643;BME280;15053;48.618;10.024;2022-08-19T04:54:23;93859.66;;;18.21;96.21
27643;BME280;15053;48.618;10.024;2022-08-19T04:57:08;93860.34;;;18.18;95.91
27643;BME280;15053;48.618;10.024;2022-08-19T04:59:37;93865.25;;;18.19;95.91
27643;BME280;15053;48.618;10.024;2022-08-19T05:02:07;93872.41;;;18.19;96.32
27643;BME280;15053;48.618;10.024;2022-08-19T05:04:35;93878.13;;;18.21;96.17
27643;BME280;15053;48.618;10.024;2022-08-19T05:07:08;93877.75;;;18.22;96.22
27643;BME280;15053;48.618;10.024;2022-08-19T05:09:36;93883.81;;;18.23;96.29
27643;BME280;15053;48.618;10.024;2022-08-19T05:12:23;93889.06;;;18.23;96.34
27643;BME280;15053;48.618;10.024;2022-08-19T05:14:55;93889.06;;;18.23;96.24
27643;BME280;15053;48.618;10.024;2022-08-19T05:17:26;93882.94;;;18.19;96.22
27643;BME280;15053;48.618;10.024;2022-08-19T05:19:58;93892.13;;;18.25;96.18
27643;BME280;15053;48.618;10.024;2022-08-19T05:22:46;93898.59;;;18.27;95.98
27643;BME280;15053;48.618;10.024;2022-08-19T05:25:16;93900.44;;;18.27;96.12
27643;BME280;15053;48.618;10.024;2022-08-19T05:27:46;93898.59;;;18.27;95.99
27643;BME280;15053;48.618;10.024;2022-08-19T05:30:13;93905.72;;;18.27;96.12
27643;BME280;15053;48.618;10.024;2022-08-19T05:32:42;93910.31;;;18.30;95.93
27643;BME280;15053;48.618;10.024;2022-08-19T05:35:09;93915.25;;;18.32;96.00
27643;BME280;15053;48.618;10.024;2022-08-19T05:37:36;93923.94;;;18.32;96.14
27643;BME280;15053;48.618;10.024;2022-08-19T05:40:03;93928.84;;;18.34;96.18
27643;BME280;15053;48.618;10.024;2022-08-19T05:42:31;93920.94;;;18.34;95.94
27643;BME280;15053;48.618;10.024;2022-08-19T05:44:58;93930.03;;;18.36;96.01
27643;BME280;15053;48.618;10.024;2022-08-19T05:47:24;93928.09;;;18.33;95.86
27643;BME280;15053;48.618;10.024;2022-08-19T05:49:51;93936.00;;;18.33;95.76
27643;BME280;15053;48.618;10.024;2022-08-19T05:52:18;93930.72;;;18.33;95.68
27643;BME280;15053;48.618;10.024;2022-08-19T05:54:52;93922.03;;;18.33;95.66
27643;BME280;15053;48.618;10.024;2022-08-19T05:57:21;93932.25;;;18.34;95.79
27643;BME280;15053;48.618;10.024;2022-08-19T05:59:48;93938.31;;;18.35;95.57
27643;BME280;15053;48.618;10.024;2022-08-19T06:02:27;93928.94;;;18.37;95.59
27643;BME280;15053;48.618;10.024;2022-08-19T06:04:54;93931.59;;;18.37;95.48
27643;BME280;15053;48.618;10.024;2022-08-19T06:07:21;93921.72;;;18.34;95.49
27643;BME280;15053;48.618;10.024;2022-08-19T06:09:48;93932.25;;;18.34;95.34
27643;BME280;15053;48.618;10.024;2022-08-19T06:12:28;93929.63;;;18.34;95.05
27643;BME280;15053;48.618;10.024;2022-08-19T06:14:59;93930.72;;;18.33;95.14
27643;BME280;15053;48.618;10.024;2022-08-19T06:17:28;93929.91;;;18.29;95.07
27643;BME280;15053;48.618;10.024;2022-08-19T06:19:57;93923.00;;;18.24;95.29
27643;BME280;15053;48.618;10.024;2022-08-19T06:22:24;93926.81;;;18.27;95.17
27643;BME280;15053;48.618;10.024;2022-08-19T06:24:51;93924.13;;;18.23;95.31
27643;BME280;15053;48.618;10.024;2022-08-19T06:27:21;93923.69;;;18.21;95.39
27643;BME280;15053;48.618;10.024;2022-08-19T06:29:48;93919.16;;;18.22;95.67
27643;BME280;15053;48.618;10.024;2022-08-19T06:32:16;93913.91;;;18.22;95.69
27643;BME280;15053;48.618;10.024;2022-08-19T06:34:44;93920.31;;;18.21;95.82
27643;BME280;15053;48.618;10.024;2022-08-19T06:37:12;93919.16;;;18.22;95.93
27643;BME280;15053;48.618;10.024;2022-08-19T06:39:41;93921.03;;;18.21;96.09
27643;BME280;15053;48.618;10.024;2022-08-19T06:42:08;93917.66;;;18.21;96.30
27643;BME280;15053;48.618;10.024;2022-08-19T06:44:39;93919.44;;;18.17;96.15
27643;BME280;15053;48.618;10.024;2022-08-19T06:47:11;93910.84;;;18.20;96.08
27643;BME280;15053;48.618;10.024;2022-08-19T06:49:57;93917.91;;;18.16;96.15
27643;BME280;15053;48.618;10.024;2022-08-19T06:52:31;93921.31;;;18.16;96.33
27643;BME280;15053;48.618;10.024;2022-08-19T06:55:00;93919.34;;;18.13;96.24
27643;BME280;15053;48.618;10.024;2022-08-19T06:57:32;93915.19;;;18.12;96.54
27643;BME280;15053;48.618;10.024;2022-08-19T07:00:00;93922.75;;;18.14;96.33
27643;BME280;15053;48.618;10.024;2022-08-19T07:02:27;93916.72;;;18.13;96.49
27643;BME280;15053;48.618;10.024;2022-08-19T07:04:54;93918.25;;;18.14;96.54
27643;BME280;15053;48.618;10.024;2022-08-19T07:07:24;93924.72;;;18.17;96.48
27643;BME280;15053;48.618;10.024;2022-08-19T07:09:51;93927.75;;;18.19;96.32
27643;BME280;15053;48.618;10.024;2022-08-19T07:12:30;93924.34;;;18.18;96.13
27643;BME280;15053;48.618;10.024;2022-08-19T07:15:03;93930.06;;;18.20;96.46
27643;BME280;15053;48.618;10.024;2022-08-19T07:17:30;93929.72;;;18.22;96.24
27643;BME280;15053;48.618;10.024;2022-08-19T07:20:00;93929.03;;;18.25;96.37
27643;BME280;15053;48.618;10.024;2022-08-19T07:22:34;93935.16;;;18.29;96.13
27643;BME280;15053;48.618;10.024;2022-08-19T07:25:02;93931.50;;;18.34;96.46
27643;BME280;15053;48.618;10.024;2022-08-19T07:27:30;93931.22;;;18.39;96.24
27643;BME280;15053;48.618;10.024;2022-08-19T07:29:59;93933.53;;;18.40;96.22
27643;BME280;15053;48.618;10.024;2022-08-19T07:32:26;93942.19;;;18.41;96.28
27643;BME280;15053;48.618;10.024;2022-08-19T07:34:54;93938.03;;;18.40;96.33
27643;BME280;15053;48.618;10.024;2022-08-19T07:37:22;93939.91;;;18.39;96.23
27643;BME280;15053;48.618;10.024;2022-08-19T07:39:49;93946.28;;;18.38;96.15
27643;BME280;15053;48.618;10.024;2022-08-19T07:42:16;93943.66;;;18.38;96.29
27643;BME280;15053;48.618;10.024;2022-08-19T07:44:44;93943.66;;;18.38;96.21
27643;BME280;15053;48.618;10.024;2022-08-19T07:47:17;93938.38;;;18.38;96.36
27643;BME280;15053;48.618;10.024;2022-08-19T07:50:07;93941.44;;;18.40;96.53
27643;BME280;15053;48.618;10.024;2022-08-19T07:52:36;93942.97;;;18.41;96.27
27643;BME280;15053;48.618;10.024;2022-08-19T07:55:08;93956.16;;;18.41;96.14
27643;BME280;15053;48.618;10.024;2022-08-19T07:57:55;93958.00;;;18.41;96.27
27643;BME280;15053;48.618;10.024;2022-08-19T08:00:22;93949.78;;;18.42;96.23
27643;BME280;15053;48.618;10.024;2022-08-19T08:02:51;93942.28;;;18.44;96.34
27643;BME280;15053;48.618;10.024;2022-08-19T08:05:22;93941.59;;;18.47;96.60
27643;BME280;15053;48.618;10.024;2022-08-19T08:08:10;93946.53;;;18.49;96.20
27643;BME280;15053;48.618;10.024;2022-08-19T08:10:56;93941.59;;;18.47;96.13
27643;BME280;15053;48.618;10.024;2022-08-19T08:13:24;93936.75;;;18.49;96.14
27643;BME280;15053;48.618;10.024;2022-08-19T08:15:52;93936.06;;;18.52;96.34
27643;BME280;15053;48.618;10.024;2022-08-19T08:18:23;93938.88;;;18.59;96.42
27643;BME280;15053;48.618;10.024;2022-08-19T08:20:54;93937.50;;;18.65;95.89
27643;BME280;15053;48.618;10.024;2022-08-19T08:23:22;93944.41;;;18.70;95.84
27643;BME280;15053;48.618;10.024;2022-08-19T08:25:51;93941.41;;;18.71;95.86
27643;BME280;15053;48.618;10.024;2022-08-19T08:28:18;93942.16;;;18.72;95.58
27643;BME280;15053;48.618;10.024;2022-08-19T08:30:47;93942.25;;;18.75;95.59
27643;BME280;15053;48.618;10.024;2022-08-19T08:33:21;93945.97;;;18.74;95.73
27643;BME280;15053;48.618;10.024;2022-08-19T08:36:00;93938.16;;;18.78;95.20
27643;BME280;15053;48.618;10.024;2022-08-19T08:38:30;93949.88;;;18.80;95.27
27643;BME280;15053;48.618;10.024;2022-08-19T08:41:33;93954.47;;;18.83;95.12
27643;BME280;15053;48.618;10.024;2022-08-19T08:44:02;93952.25;;;18.85;94.96
27643;BME280;15053;48.618;10.024;2022-08-19T08:46:38;93952.66;;;18.88;94.85
27643;BME280;15053;48.618;10.024;2022-08-19T08:51:45;93960.09;;;18.82;94.36
27643;BME280;15053;48.618;10.024;2022-08-19T08:54:36;93960.44;;;18.80;94.30
27643;BME280;15053;48.618;10.024;2022-08-19T08:57:15;93972.53;;;18.81;94.25
27643;BME280;15053;48.618;10.024;2022-08-19T08:59:47;93976.97;;;18.77;94.01
27643;BME280;15053;48.618;10.024;2022-08-19T09:02:18;93976.81;;;18.70;94.41
27643;BME280;15053;48.618;10.024;2022-08-19T09:04:45;93977.06;;;18.65;94.04
27643;BME280;15053;48.618;10.024;2022-08-19T09:10:29;93986.38;;;18.59;94.76
27643;BME280;15053;48.618;10.024;2022-08-19T09:13:08;93986.19;;;18.52;94.46
27643;BME280;15053;48.618;10.024;2022-08-19T09:15:43;93976.31;;;18.49;95.25
27643;BME280;15053;48.618;10.024;2022-08-19T09:18:14;93982.38;;;18.50;95.35
27643;BME280;15053;48.618;10.024;2022-08-19T09:20:45;93977.59;;;18.55;95.36
27643;BME280;15053;48.618;10.024;2022-08-19T09:23:14;93984.06;;;18.58;95.26
27643;BME280;15053;48.618;10.024;2022-08-19T09:25:41;93976.91;;;18.58;95.52
27643;BME280;15053;48.618;10.024;2022-08-19T09:28:08;93984.16;;;18.61;95.52
27643;BME280;15053;48.618;10.024;2022-08-19T09:30:48;93980.38;;;18.62;95.46
27643;BME280;15053;48.618;10.024;2022-08-19T09:33:14;93981.09;;;18.59;95.34
27643;BME280;15053;48.618;10.024;2022-08-19T09:35:42;93984.84;;;18.58;95.51
27643;BME280;15053;48.618;10.024;2022-08-19T09:38:20;93983.28;;;18.57;95.42
27643;BME280;15053;48.618;10.024;2022-08-19T09:40:47;93988.16;;;18.55;95.76
27643;BME280;15053;48.618;10.024;2022-08-19T09:43:14;93959.50;;;18.54;95.75
27643;BME280;15053;48.618;10.024;2022-08-19T09:45:58;93965.28;;;18.59;95.78
27643;BME280;15053;48.618;10.024;2022-08-19T09:48:26;93963.97;;;18.69;95.73
27643;BME280;15053;48.618;10.024;2022-08-19T09:50:53;93973.47;;;18.73;95.47
27643;BME280;15053;48.618;10.024;2022-08-19T09:53:20;93973.22;;;18.78;95.43
27643;BME280;15053;48.618;10.024;2022-08-19T09:55:51;93977.81;;;18.81;95.88
27643;BME280;15053;48.618;10.024;2022-08-19T09:58:17;93978.66;;;18.85;95.70
27643;BME280;15053;48.618;10.024;2022-08-19T10:00:50;93967.25;;;18.81;95.42
27643;BME280;15053;48.618;10.024;2022-08-19T10:03:17;93973.22;;;18.78;95.41
27643;BME280;15053;48.618;10.024;2022-08-19T10:05:43;93980.69;;;18.76;95.41
27643;BME280;15053;48.618;10.024;2022-08-19T10:08:24;93980.56;;;18.69;95.22
27643;BME280;15053;48.618;10.024;2022-08-19T10:10:53;93978.19;;;18.64;95.42
27643;BME280;15053;48.618;10.024;2022-08-19T10:13:25;93982.59;;;18.60;95.38
27643;BME280;15053;48.618;10.024;2022-08-19T10:15:53;93987.75;;;18.53;95.48
27643;BME280;15053;48.618;10.024;2022-08-19T10:18:22;93984.88;;;18.46;95.86
27643;BME280;15053;48.618;10.024;2022-08-19T10:20:51;93990.44;;;18.41;96.33
27643;BME280;15053;48.618;10.024;2022-08-19T10:23:20;93989.59;;;18.37;96.35
27643;BME280;15053;48.618;10.024;2022-08-19T10:25:48;93989.16;;;18.35;96.48
27643;BME280;15053;48.618;10.024;2022-08-19T10:28:15;94000.06;;;18.34;96.97
27643;BME280;15053;48.618;10.024;2022-08-19T10:30:45;94002.28;;;18.32;97.12
27643;BME280;15053;48.618;10.024;2022-08-19T10:33:12;94006.00;;;18.31;96.95
27643;BME280;15053;48.618;10.024;2022-08-19T10:35:40;93999.19;;;18.29;97.15
27643;BME280;15053;48.618;10.024;2022-08-19T10:38:22;94007.88;;;18.30;97.44
27643;BME280;15053;48.618;10.024;2022-08-19T10:40:58;94009.00;;;18.29;97.29
27643;BME280;15053;48.618;10.024;2022-08-19T10:43:24;94011.63;;;18.29;97.36
27643;BME280;15053;48.618;10.024;2022-08-19T10:45:53;94015.38;;;18.28;97.51
27643;BME280;15053;48.618;10.024;2022-08-19T10:48:24;94014.94;;;18.26;97.74
27643;BME280;15053;48.618;10.024;2022-08-19T10:50:52;94015.28;;;18.24;97.62
27643;BME280;15053;48.618;10.024;2022-08-19T10:53:49;94008.13;;;18.25;97.66
27643;BME280;15053;48.618;10.024;2022-08-19T10:56:16;94013.41;;;18.25;98.23
27643;BME280;15053;48.618;10.024;2022-08-19T10:59:03;94006.28;;;18.25;98.23
27643;BME280;15053;48.618;10.024;2022-08-19T11:01:31;94008.91;;;18.25;97.78
27643;BME280;15053;48.618;10.024;2022-08-19T11:04:01;94002.88;;;18.25;98.09
27643;BME280;15053;48.618;10.024;2022-08-19T11:06:29;94003.28;;;18.27;98.26
27643;BME280;15053;48.618;10.024;2022-08-19T11:08:57;93997.31;;;18.30;98.34
27643;BME280;15053;48.618;10.024;2022-08-19T11:11:24;93993.25;;;18.33;98.21
27643;BME280;15053;48.618;10.024;2022-08-19T11:13:51;93996.66;;;18.33;98.38
27643;BME280;15053;48.618;10.024;2022-08-19T11:16:20;93991.47;;;18.37;98.37
27643;BME280;15053;48.618;10.024;2022-08-19T11:18:50;93997.94;;;18.39;98.38
27643;BME280;15053;48.618;10.024;2022-08-19T11:21:29;94001.34;;;18.40;98.52
27643;BME280;15053;48.618;10.024;2022-08-19T11:24:00;93997.16;;;18.39;98.09
27643;BME280;15053;48.618;10.024;2022-08-19T11:26:28;94000.66;;;18.43;98.49
27643;BME280;15053;48.618;10.024;2022-08-19T11:28:57;94008.34;;;18.48;98.73
27643;BME280;15053;48.618;10.024;2022-08-19T11:31:27;94007.66;;;18.51;98.28
27643;BME280;15053;48.618;10.024;2022-08-19T11:33:59;94002.03;;;18.52;98.06
27643;BME280;15053;48.618;10.024;2022-08-19T11:36:28;94006.97;;;18.54;98.04
27643;BME280;15053;48.618;10.024;2022-08-19T11:38:55;94004.41;;;18.57;98.16
27643;BME280;15053;48.618;10.024;2022-08-19T11:41:23;94013.16;;;18.61;98.21
27643;BME280;15053;48.618;10.024;2022-08-19T11:43:51;94012.81;;;18.63;97.97
27643;BME280;15053;48.618;10.024;2022-08-19T11:46:21;94015.13;;;18.64;97.71
27643;BME280;15053;48.618;10.024;2022-08-19T11:48:49;94013.25;;;18.65;97.88
27643;BME280;15053;48.618;10.024;2022-08-19T11:51:21;94020.41;;;18.64;98.02
27643;BME280;15053;48.618;10.024;2022-08-19T11:53:48;94012.50;;;18.64;97.94
27643;BME280;15053;48.618;10.024;2022-08-19T11:56:17;94013.75;;;18.70;97.78
27643;BME280;15053;48.618;10.024;2022-08-19T11:58:45;94010.69;;;18.68;97.37
27643;BME280;15053;48.618;10.024;2022-08-19T12:01:14;94004.56;;;18.64;97.33
27643;BME280;15053;48.618;10.024;2022-08-19T12:03:47;94006.78;;;18.62;97.26
27643;BME280;15053;48.618;10.024;2022-08-19T12:06:17;94006.34;;;18.60;97.43
27643;BME280;15053;48.618;10.024;2022-08-19T12:08:45;94003.44;;;18.65;97.57
27643;BME280;15053;48.618;10.024;2022-08-19T12:11:14;94000.97;;;18.72;97.72
27643;BME280;15053;48.618;10.024;2022-08-19T12:13:41;94013.22;;;18.80;97.27
27643;BME280;15053;48.618;10.024;2022-08-19T12:16:19;94014.06;;;18.84;97.26
27643;BME280;15053;48.618;10.024;2022-08-19T12:18:47;94017.19;;;18.90;97.50
27643;BME280;15053;48.618;10.024;2022-08-19T12:21:15;94004.75;;;18.91;97.45
27643;BME280;15053;48.618;10.024;2022-08-19T12:23:43;94012.75;;;18.94;97.33
27643;BME280;15053;48.618;10.024;2022-08-19T12:26:11;94008.75;;;19.00;97.27
27643;BME280;15053;48.618;10.024;2022-08-19T12:28:38;94004.56;;;18.99;97.09
27643;BME280;15053;48.618;10.024;2022-08-19T12:31:05;94009.25;;;19.06;97.23
27643;BME280;15053;48.618;10.024;2022-08-19T12:33:32;93999.78;;;19.05;96.79
27643;BME280;15053;48.618;10.024;2022-08-19T12:36:02;94003.13;;;19.02;96.54
27643;BME280;15053;48.618;10.024;2022-08-19T12:38:30;93997.00;;;18.98;96.82
27643;BME280;15053;48.618;10.024;2022-08-19T12:40:58;93999.97;;;18.96;96.38
27643;BME280;15053;48.618;10.024;2022-08-19T12:43:26;93998.38;;;18.92;96.77
27643;BME280;15053;48.618;10.024;2022-08-19T12:45:53;94007.41;;;18.91;96.72
27643;BME280;15053;48.618;10.024;2022-08-19T12:48:21;94005.13;;;18.89;96.71
27643;BME280;15053;48.618;10.024;2022-08-19T12:51:06;94012.28;;;18.89;96.92
27643;BME280;15053;48.618;10.024;2022-08-19T12:53:33;94013.03;;;18.89;96.80
27643;BME280;15053;48.618;10.024;2022-08-19T12:56:05;94018.72;;;18.91;97.01
27643;BME280;15053;48.618;10.024;2022-08-19T12:58:38;94027.06;;;18.93;97.00
27643;BME280;15053;48.618;10.024;2022-08-19T13:01:14;94026.28;;;18.93;96.90
27643;BME280;15053;48.618;10.024;2022-08-19T13:03:45;94037.97;;;18.92;97.00
27643;BME280;15053;48.618;10.024;2022-08-19T13:06:12;94038.66;;;18.89;96.83
27643;BME280;15053;48.618;10.024;2022-08-19T13:08:42;94039.34;;;18.85;96.61
27643;BME280;15053;48.618;10.024;2022-08-19T13:11:15;94044.88;;;18.80;96.59
27643;BME280;15053;48.618;10.024;2022-08-19T13:13:46;94044.38;;;18.75;96.89